sensor_id;sensor_type;location;lat;lon;timestamp;pressure;altitude;pressure_sealevel;temperature;humidity
59063;BME280;44851;45.648;9.004;2024-02-28T00:01:37;98584.59;;;8.34;85.18
59063;BME280;44851;45.648;9.004;2024-02-28T00:04:02;98573.97;;;8.37;85.46
59063;BME280;44851;45.648;9.004;2024-02-28T00:06:28;98574.22;;;8.34;85.52
59063;BME280;44851;45.648;9.004;2024-02-28T00:08:53;98577.06;;;8.31;85.21
59063;BME280;44851;45.648;9.004;2024-02-28T00:11:20;98584.59;;;8.34;85.83
59063;BME280;44851;45.648;9.004;2024-02-28T00:13:45;98577.50;;;8.26;85.80
59063;BME280;44851;45.648;9.004;2024-02-28T00:16:10;98578.03;;;8.30;85.93
59063;BME280;44851;45.648;9.004;2024-02-28T00:18:36;98572.84;;;8.30;85.87
59063;BME280;44851;45.648;9.004;2024-02-28T00:21:02;98577.06;;;8.31;86.23
59063;BME280;44851;45.648;9.004;2024-02-28T00:23:29;98574.38;;;8.32;85.71
59063;BME280;44851;45.648;9.004;2024-02-28T00:25:54;98575.59;;;8.28;85.42
59063;BME280;44851;45.648;9.004;2024-02-28T00:28:19;98580.63;;;8.30;84.74
59063;BME280;44851;45.648;9.004;2024-02-28T00:30:44;98580.63;;;8.30;85.07
59063;BME280;44851;45.648;9.004;2024-02-28T00:33:10;98597.19;;;8.29;85.23
59063;BME280;44851;45.648;9.004;2024-02-28T00:35:35;98609.19;;;8.30;85.38
59063;BME280;44851;45.648;9.004;2024-02-28T00:38:01;98611.25;;;8.26;85.51
59063;BME280;44851;45.648;9.004;2024-02-28T00:40:27;98607.28;;;8.22;85.24
59063;BME280;44851;45.648;9.004;2024-02-28T00:42:53;98607.81;;;8.25;85.58
59063;BME280;44851;45.648;9.004;2024-02-28T00:45:19;98616.16;;;8.29;85.94
59063;BME280;44851;45.648;9.004;2024-02-28T00:47:44;98621.50;;;8.28;85.48
59063;BME280;44851;45.648;9.004;2024-02-28T00:50:10;98622.19;;;8.30;86.23
59063;BME280;44851;45.648;9.004;2024-02-28T00:52:36;98619.06;;;8.26;85.98
59063;BME280;44851;45.648;9.004;2024-02-28T00:55:02;98622.97;;;8.20;86.06
59063;BME280;44851;45.648;9.004;2024-02-28T00:57:28;98626.28;;;8.22;85.59
59063;BME280;44851;45.648;9.004;2024-02-28T00:59:53;98621.75;;;8.24;86.22
59063;BME280;44851;45.648;9.004;2024-02-28T01:02:20;98633.66;;;8.27;86.15
59063;BME280;44851;45.648;9.004;2024-02-28T01:04:45;98646.38;;;8.30;85.62
59063;BME280;44851;45.648;9.004;2024-02-28T01:07:10;98649.66;;;8.32;85.16
59063;BME280;44851;45.648;9.004;2024-02-28T01:09:36;98655.94;;;8.30;85.41
59063;BME280;44851;45.648;9.004;2024-02-28T01:12:01;98661.94;;;8.30;85.47
59063;BME280;44851;45.648;9.004;2024-02-28T01:14:27;98668.66;;;8.33;85.55
59063;BME280;44851;45.648;9.004;2024-02-28T01:16:52;98668.66;;;8.33;85.58
59063;BME280;44851;45.648;9.004;2024-02-28T01:19:17;98671.25;;;8.33;85.08
59063;BME280;44851;45.648;9.004;2024-02-28T01:21:43;98671.25;;;8.33;86.15
59063;BME280;44851;45.648;9.004;2024-02-28T01:24:09;98677.41;;;8.32;86.45
59063;BME280;44851;45.648;9.004;2024-02-28T01:26:34;98682.19;;;8.27;85.86
59063;BME280;44851;45.648;9.004;2024-02-28T01:28:59;98680.25;;;8.29;86.03
59063;BME280;44851;45.648;9.004;2024-02-28T01:31:25;98673.16;;;8.31;85.88
59063;BME280;44851;45.648;9.004;2024-02-28T01:33:50;98676.69;;;8.30;86.15
59063;BME280;44851;45.648;9.004;2024-02-28T01:36:15;98673.44;;;8.28;86.10
59063;BME280;44851;45.648;9.004;2024-02-28T01:38:41;98677.25;;;8.23;86.26
59063;BME280;44851;45.648;9.004;2024-02-28T01:41:06;98681.06;;;8.29;86.55
59063;BME280;44851;45.648;9.004;2024-02-28T01:43:32;98680.41;;;8.27;85.87
59063;BME280;44851;45.648;9.004;2024-02-28T01:46:01;98689.00;;;8.28;86.33
59063;BME280;44851;45.648;9.004;2024-02-28T01:48:28;98683.53;;;8.31;86.60
59063;BME280;44851;45.648;9.004;2024-02-28T01:50:53;98674.38;;;8.27;86.29
59063;BME280;44851;45.648;9.004;2024-02-28T01:53:19;98672.47;;;8.29;86.48
59063;BME280;44851;45.648;9.004;2024-02-28T01:55:45;98673.44;;;8.28;86.51
59063;BME280;44851;45.648;9.004;2024-02-28T01:58:11;98677.41;;;8.32;86.44
59063;BME280;44851;45.648;9.004;2024-02-28T02:00:37;98678.22;;;8.32;86.19
59063;BME280;44851;45.648;9.004;2024-02-28T02:03:03;98678.91;;;8.34;86.88
59063;BME280;44851;45.648;9.004;2024-02-28T02:05:29;98675.88;;;8.29;86.37
59063;BME280;44851;45.648;9.004;2024-02-28T02:07:55;98672.72;;;8.25;86.25
59063;BME280;44851;45.648;9.004;2024-02-28T02:10:22;98677.81;;;8.27;86.18
59063;BME280;44851;45.648;9.004;2024-02-28T02:12:48;98687.66;;;8.33;87.43
59063;BME280;44851;45.648;9.004;2024-02-28T02:15:13;98693.91;;;8.31;86.82
59063;BME280;44851;45.648;9.004;2024-02-28T02:17:39;98690.91;;;8.25;86.10
59063;BME280;44851;45.648;9.004;2024-02-28T02:20:04;98689.97;;;8.27;86.50
59063;BME280;44851;45.648;9.004;2024-02-28T02:22:36;98684.34;;;8.31;85.62
59063;BME280;44851;45.648;9.004;2024-02-28T02:25:03;98695.88;;;8.38;86.41
59063;BME280;44851;45.648;9.004;2024-02-28T02:27:29;98692.84;;;8.33;85.82
59063;BME280;44851;45.648;9.004;2024-02-28T02:29:54;98691.06;;;8.34;86.40
59063;BME280;44851;45.648;9.004;2024-02-28T02:32:20;98693.41;;;8.37;86.09
59063;BME280;44851;45.648;9.004;2024-02-28T02:34:45;98697.66;;;8.38;85.96
59063;BME280;44851;45.648;9.004;2024-02-28T02:37:11;98702.13;;;8.36;86.23
59063;BME280;44851;45.648;9.004;2024-02-28T02:39:36;98696.69;;;8.39;86.08
59063;BME280;44851;45.648;9.004;2024-02-28T02:42:01;98702.66;;;8.30;85.92
59063;BME280;44851;45.648;9.004;2024-02-28T02:44:27;98710.50;;;8.39;86.28
59063;BME280;44851;45.648;9.004;2024-02-28T02:46:52;98704.19;;;8.42;86.49
59063;BME280;44851;45.648;9.004;2024-02-28T02:49:17;98705.31;;;8.39;86.43
59063;BME280;44851;45.648;9.004;2024-02-28T02:51:44;98714.88;;;8.39;85.69
59063;BME280;44851;45.648;9.004;2024-02-28T02:54:09;98710.63;;;8.38;86.05
59063;BME280;44851;45.648;9.004;2024-02-28T02:56:35;98716.38;;;8.41;85.78
59063;BME280;44851;45.648;9.004;2024-02-28T02:59:00;98721.97;;;8.37;86.10
59063;BME280;44851;45.648;9.004;2024-02-28T03:01:25;98717.59;;;8.37;85.98
59063;BME280;44851;45.648;9.004;2024-02-28T03:03:51;98715.53;;;8.41;85.83
59063;BME280;44851;45.648;9.004;2024-02-28T03:06:17;98727.56;;;8.42;85.92
59063;BME280;44851;45.648;9.004;2024-02-28T03:08:43;98726.66;;;8.43;86.45
59063;BME280;44851;45.648;9.004;2024-02-28T03:11:08;98722.81;;;8.37;85.70
59063;BME280;44851;45.648;9.004;2024-02-28T03:13:35;98728.41;;;8.42;85.67
59063;BME280;44851;45.648;9.004;2024-02-28T03:16:00;98738.66;;;8.44;85.43
59063;BME280;44851;45.648;9.004;2024-02-28T03:18:25;98740.44;;;8.43;84.99
59063;BME280;44851;45.648;9.004;2024-02-28T03:20:51;98737.03;;;8.43;86.80
59063;BME280;44851;45.648;9.004;2024-02-28T03:23:16;98741.25;;;8.44;86.36
59063;BME280;44851;45.648;9.004;2024-02-28T03:25:42;98742.66;;;8.48;86.53
59063;BME280;44851;45.648;9.004;2024-02-28T03:28:07;98747.56;;;8.51;85.79
59063;BME280;44851;45.648;9.004;2024-02-28T03:30:33;98744.53;;;8.46;86.02
59063;BME280;44851;45.648;9.004;2024-02-28T03:32:58;98742.25;;;8.52;85.61
59063;BME280;44851;45.648;9.004;2024-02-28T03:35:24;98738.56;;;8.55;86.02
59063;BME280;44851;45.648;9.004;2024-02-28T03:37:50;98742.66;;;8.48;85.50
59063;BME280;44851;45.648;9.004;2024-02-28T03:40:15;98746.47;;;8.44;86.06
59063;BME280;44851;45.648;9.004;2024-02-28T03:42:41;98748.66;;;8.48;85.96
59063;BME280;44851;45.648;9.004;2024-02-28T03:45:09;98755.50;;;8.49;85.83
59063;BME280;44851;45.648;9.004;2024-02-28T03:47:34;98755.34;;;8.51;85.54
59063;BME280;44851;45.648;9.004;2024-02-28T03:50:00;98756.56;;;8.37;85.56
59063;BME280;44851;45.648;9.004;2024-02-28T03:52:27;98757.09;;;8.41;85.68
59063;BME280;44851;45.648;9.004;2024-02-28T03:54:54;98757.66;;;8.44;85.68
59063;BME280;44851;45.648;9.004;2024-02-28T03:57:19;98761.22;;;8.43;85.26
59063;BME280;44851;45.648;9.004;2024-02-28T03:59:44;98757.00;;;8.42;85.45
59063;BME280;44851;45.648;9.004;2024-02-28T04:02:10;98757.91;;;8.41;85.43
59063;BME280;44851;45.648;9.004;2024-02-28T04:04:35;98766.66;;;8.40;85.18
59063;BME280;44851;45.648;9.004;2024-02-28T04:07:01;98762.00;;;8.34;85.12
59063;BME280;44851;45.648;9.004;2024-02-28T04:09:26;98764.75;;;8.33;86.20
59063;BME280;44851;45.648;9.004;2024-02-28T04:11:51;98766.25;;;8.35;85.62
59063;BME280;44851;45.648;9.004;2024-02-28T04:14:17;98770.03;;;8.31;85.35
59063;BME280;44851;45.648;9.004;2024-02-28T04:16:43;98768.00;;;8.35;86.03
59063;BME280;44851;45.648;9.004;2024-02-28T04:19:09;98773.22;;;8.35;85.79
59063;BME280;44851;45.648;9.004;2024-02-28T04:21:35;98785.50;;;8.33;85.41
59063;BME280;44851;45.648;9.004;2024-02-28T04:24:00;98793.47;;;8.41;85.23
59063;BME280;44851;45.648;9.004;2024-02-28T04:26:25;98800.81;;;8.36;85.43
59063;BME280;44851;45.648;9.004;2024-02-28T04:28:51;98796.34;;;8.38;84.93
59063;BME280;44851;45.648;9.004;2024-02-28T04:31:16;98803.59;;;8.44;84.91
59063;BME280;44851;45.648;9.004;2024-02-28T04:33:41;98804.16;;;8.17;84.96
59063;BME280;44851;45.648;9.004;2024-02-28T04:36:07;98796.91;;;8.20;86.18
59063;BME280;44851;45.648;9.004;2024-02-28T04:38:32;98801.09;;;8.33;86.02
59063;BME280;44851;45.648;9.004;2024-02-28T04:40:57;98808.78;;;8.44;85.59
59063;BME280;44851;45.648;9.004;2024-02-28T04:43:23;98811.53;;;8.52;85.37
59063;BME280;44851;45.648;9.004;2024-02-28T04:45:48;98809.66;;;8.54;85.42
59063;BME280;44851;45.648;9.004;2024-02-28T04:48:13;98825.63;;;8.49;85.02
59063;BME280;44851;45.648;9.004;2024-02-28T04:50:39;98821.69;;;8.55;85.22
59063;BME280;44851;45.648;9.004;2024-02-28T04:53:04;98824.28;;;8.55;85.25
59063;BME280;44851;45.648;9.004;2024-02-28T04:55:29;98820.03;;;8.54;85.48
59063;BME280;44851;45.648;9.004;2024-02-28T04:57:55;98827.44;;;8.59;85.28
59063;BME280;44851;45.648;9.004;2024-02-28T05:00:20;98826.34;;;8.61;85.40
59063;BME280;44851;45.648;9.004;2024-02-28T05:02:45;98826.50;;;8.60;85.55
59063;BME280;44851;45.648;9.004;2024-02-28T05:05:11;98831.81;;;8.58;84.92
59063;BME280;44851;45.648;9.004;2024-02-28T05:07:36;98838.88;;;8.46;84.99
59063;BME280;44851;45.648;9.004;2024-02-28T05:10:02;98832.31;;;8.52;85.61
59063;BME280;44851;45.648;9.004;2024-02-28T05:12:27;98837.75;;;8.39;85.36
59063;BME280;44851;45.648;9.004;2024-02-28T05:14:52;98836.16;;;8.48;85.51
59063;BME280;44851;45.648;9.004;2024-02-28T05:17:17;98838.03;;;8.46;85.72
59063;BME280;44851;45.648;9.004;2024-02-28T05:19:43;98844.06;;;8.46;86.09
59063;BME280;44851;45.648;9.004;2024-02-28T05:22:08;98847.88;;;8.42;86.38
59063;BME280;44851;45.648;9.004;2024-02-28T05:24:36;98848.72;;;8.43;86.13
59063;BME280;44851;45.648;9.004;2024-02-28T05:27:02;98850.59;;;8.41;86.35
59063;BME280;44851;45.648;9.004;2024-02-28T05:29:27;98850.34;;;8.44;86.28
59063;BME280;44851;45.648;9.004;2024-02-28T05:31:52;98858.28;;;8.42;86.02
59063;BME280;44851;45.648;9.004;2024-02-28T05:34:18;98860.44;;;8.37;86.04
59063;BME280;44851;45.648;9.004;2024-02-28T05:36:43;98851.03;;;8.46;86.41
59063;BME280;44851;45.648;9.004;2024-02-28T05:39:09;98860.97;;;8.41;86.00
59063;BME280;44851;45.648;9.004;2024-02-28T05:41:34;98867.56;;;8.45;86.48
59063;BME280;44851;45.648;9.004;2024-02-28T05:43:59;98874.41;;;8.46;86.22
59063;BME280;44851;45.648;9.004;2024-02-28T05:46:25;98868.38;;;8.45;85.72
59063;BME280;44851;45.648;9.004;2024-02-28T05:48:50;98875.81;;;8.50;85.61
59063;BME280;44851;45.648;9.004;2024-02-28T05:51:16;98876.91;;;8.47;86.40
59063;BME280;44851;45.648;9.004;2024-02-28T05:53:42;98880.31;;;8.48;85.60
59063;BME280;44851;45.648;9.004;2024-02-28T05:56:08;98881.44;;;8.55;85.09
59063;BME280;44851;45.648;9.004;2024-02-28T05:58:43;98885.66;;;8.56;86.29
59063;BME280;44851;45.648;9.004;2024-02-28T06:01:15;98887.34;;;8.36;84.96
59063;BME280;44851;45.648;9.004;2024-02-28T06:03:40;98887.22;;;8.38;85.68
59063;BME280;44851;45.648;9.004;2024-02-28T06:06:06;98896.53;;;8.40;85.92
59063;BME280;44851;45.648;9.004;2024-02-28T06:08:32;98891.09;;;8.43;85.76
59063;BME280;44851;45.648;9.004;2024-02-28T06:10:58;98893.25;;;8.38;85.39
59063;BME280;44851;45.648;9.004;2024-02-28T06:13:24;98902.28;;;8.44;85.76
59063;BME280;44851;45.648;9.004;2024-02-28T06:15:49;98899.25;;;8.39;85.97
59063;BME280;44851;45.648;9.004;2024-02-28T06:18:14;98904.19;;;8.42;85.53
59063;BME280;44851;45.648;9.004;2024-02-28T06:20:40;98909.06;;;8.35;85.90
59063;BME280;44851;45.648;9.004;2024-02-28T06:23:05;98911.78;;;8.34;85.86
59063;BME280;44851;45.648;9.004;2024-02-28T06:25:30;98908.97;;;8.37;85.91
59063;BME280;44851;45.648;9.004;2024-02-28T06:27:59;98911.28;;;8.40;86.41
59063;BME280;44851;45.648;9.004;2024-02-28T06:30:25;98909.94;;;8.45;86.32
59063;BME280;44851;45.648;9.004;2024-02-28T06:32:50;98916.22;;;8.43;86.24
59063;BME280;44851;45.648;9.004;2024-02-28T06:35:15;98917.88;;;8.44;86.49
59063;BME280;44851;45.648;9.004;2024-02-28T06:37:41;98920.63;;;8.52;85.68
59063;BME280;44851;45.648;9.004;2024-02-28T06:40:08;98916.53;;;8.49;85.56
59063;BME280;44851;45.648;9.004;2024-02-28T06:42:34;98923.88;;;8.44;86.48
59063;BME280;44851;45.648;9.004;2024-02-28T06:45:01;98930.22;;;8.51;85.89
59063;BME280;44851;45.648;9.004;2024-02-28T06:47:27;98930.09;;;8.53;85.50
59063;BME280;44851;45.648;9.004;2024-02-28T06:49:52;98925.34;;;8.58;86.13
59063;BME280;44851;45.648;9.004;2024-02-28T06:52:17;98930.28;;;8.61;85.87
59063;BME280;44851;45.648;9.004;2024-02-28T06:54:43;98936.66;;;8.57;84.99
59063;BME280;44851;45.648;9.004;2024-02-28T06:57:08;98939.25;;;8.57;84.98
59063;BME280;44851;45.648;9.004;2024-02-28T06:59:34;98930.28;;;8.61;85.81
59063;BME280;44851;45.648;9.004;2024-02-28T07:01:59;98927.16;;;8.67;85.50
59063;BME280;44851;45.648;9.004;2024-02-28T07:04:24;98936.41;;;8.60;85.91
59063;BME280;44851;45.648;9.004;2024-02-28T07:06:50;98938.78;;;8.63;85.25
59063;BME280;44851;45.648;9.004;2024-02-28T07:09:15;98935.75;;;8.58;85.14
59063;BME280;44851;45.648;9.004;2024-02-28T07:11:41;98939.16;;;8.59;85.68
59063;BME280;44851;45.648;9.004;2024-02-28T07:14:06;98940.41;;;8.64;85.60
59063;BME280;44851;45.648;9.004;2024-02-28T07:16:31;98942.81;;;8.56;85.79
59063;BME280;44851;45.648;9.004;2024-02-28T07:18:59;98945.28;;;8.58;85.37
59063;BME280;44851;45.648;9.004;2024-02-28T07:21:25;98950.69;;;8.66;85.68
59063;BME280;44851;45.648;9.004;2024-02-28T07:23:50;98947.84;;;8.69;85.83
59063;BME280;44851;45.648;9.004;2024-02-28T07:26:25;98949.19;;;8.73;85.61
59063;BME280;44851;45.648;9.004;2024-02-28T07:28:51;98952.88;;;8.70;85.51
59063;BME280;44851;45.648;9.004;2024-02-28T07:31:16;98959.97;;;8.68;86.31
59063;BME280;44851;45.648;9.004;2024-02-28T07:33:42;98962.56;;;8.68;85.44
59063;BME280;44851;45.648;9.004;2024-02-28T07:36:10;98967.00;;;8.77;85.62
59063;BME280;44851;45.648;9.004;2024-02-28T07:38:41;98967.00;;;8.77;84.58
59063;BME280;44851;45.648;9.004;2024-02-28T07:41:07;98979.03;;;8.78;84.95
59063;BME280;44851;45.648;9.004;2024-02-28T07:43:34;98978.81;;;8.82;85.84
59063;BME280;44851;45.648;9.004;2024-02-28T07:46:13;98980.44;;;8.83;85.46
59063;BME280;44851;45.648;9.004;2024-02-28T07:48:39;98991.09;;;8.80;85.90
59063;BME280;44851;45.648;9.004;2024-02-28T07:51:07;98985.41;;;8.86;86.00
59063;BME280;44851;45.648;9.004;2024-02-28T07:53:33;98987.16;;;8.85;85.75
59063;BME280;44851;45.648;9.004;2024-02-28T07:55:58;98995.06;;;8.84;85.47
59063;BME280;44851;45.648;9.004;2024-02-28T07:58:29;98991.34;;;8.76;85.23
59063;BME280;44851;45.648;9.004;2024-02-28T08:00:57;98999.50;;;8.93;86.21
59063;BME280;44851;45.648;9.004;2024-02-28T08:03:22;99000.47;;;8.92;85.38
59063;BME280;44851;45.648;9.004;2024-02-28T08:05:48;99002.94;;;8.93;84.69
59063;BME280;44851;45.648;9.004;2024-02-28T08:08:16;99004.94;;;8.90;84.75
59063;BME280;44851;45.648;9.004;2024-02-28T08:10:41;99008.72;;;8.97;85.23
59063;BME280;44851;45.648;9.004;2024-02-28T08:13:25;99013.91;;;8.97;84.70
59063;BME280;44851;45.648;9.004;2024-02-28T08:16:12;99017.47;;;8.96;83.98
59063;BME280;44851;45.648;9.004;2024-02-28T08:19:30;99023.78;;;9.03;85.21
59063;BME280;44851;45.648;9.004;2024-02-28T08:22:10;99025.22;;;9.17;85.16
59063;BME280;44851;45.648;9.004;2024-02-28T08:24:52;99034.78;;;9.16;84.63
59063;BME280;44851;45.648;9.004;2024-02-28T08:27:35;99033.28;;;9.14;84.62
59063;BME280;44851;45.648;9.004;2024-02-28T08:37:18;99048.06;;;9.34;86.13
59063;BME280;44851;45.648;9.004;2024-02-28T08:39:46;99050.00;;;9.42;85.36
59063;BME280;44851;45.648;9.004;2024-02-28T08:42:16;99049.22;;;9.51;86.78
59063;BME280;44851;45.648;9.004;2024-02-28T08:44:55;99054.72;;;9.57;86.11
59063;BME280;44851;45.648;9.004;2024-02-28T08:47:24;99058.28;;;9.56;86.36
59063;BME280;44851;45.648;9.004;2024-02-28T08:53:18;99064.31;;;9.57;85.44
59063;BME280;44851;45.648;9.004;2024-02-28T08:55:54;99066.22;;;9.55;85.48
59063;BME280;44851;45.648;9.004;2024-02-28T08:58:20;99069.13;;;9.62;85.40
59063;BME280;44851;45.648;9.004;2024-02-28T09:00:45;99066.66;;;9.60;85.01
59063;BME280;44851;45.648;9.004;2024-02-28T09:03:11;99066.25;;;9.65;85.54
59063;BME280;44851;45.648;9.004;2024-02-28T09:05:36;99070.50;;;9.66;85.74
59063;BME280;44851;45.648;9.004;2024-02-28T09:08:01;99078.84;;;9.69;85.65
59063;BME280;44851;45.648;9.004;2024-02-28T09:10:27;99074.59;;;9.68;86.49
59063;BME280;44851;45.648;9.004;2024-02-28T09:12:54;99065.19;;;9.77;85.28
59063;BME280;44851;45.648;9.004;2024-02-28T09:15:19;99069.63;;;9.86;84.34
59063;BME280;44851;45.648;9.004;2024-02-28T09:17:45;99070.19;;;9.99;84.43
59063;BME280;44851;45.648;9.004;2024-02-28T09:20:11;99075.56;;;10.07;84.77
59063;BME280;44851;45.648;9.004;2024-02-28T09:22:37;99075.97;;;10.13;84.02
59063;BME280;44851;45.648;9.004;2024-02-28T09:25:03;99075.66;;;10.06;84.13
59063;BME280;44851;45.648;9.004;2024-02-28T09:27:47;99082.53;;;10.17;84.66
59063;BME280;44851;45.648;9.004;2024-02-28T09:30:46;99088.72;;;10.16;83.76
59063;BME280;44851;45.648;9.004;2024-02-28T09:33:27;99087.50;;;10.29;85.29
59063;BME280;44851;45.648;9.004;2024-02-28T09:36:18;99090.78;;;10.31;84.44
59063;BME280;44851;45.648;9.004;2024-02-28T09:39:32;99097.66;;;10.32;83.97
59063;BME280;44851;45.648;9.004;2024-02-28T09:42:35;99097.22;;;10.27;83.76
59063;BME280;44851;45.648;9.004;2024-02-28T09:45:23;99101.38;;;10.30;83.59
59063;BME280;44851;45.648;9.004;2024-02-28T09:48:09;99099.44;;;10.42;84.82
59063;BME280;44851;45.648;9.004;2024-02-28T09:50:36;99105.91;;;10.57;84.72
59063;BME280;44851;45.648;9.004;2024-02-28T09:53:04;99106.75;;;10.67;85.05
59063;BME280;44851;45.648;9.004;2024-02-28T09:55:56;99106.44;;;10.70;83.41
59063;BME280;44851;45.648;9.004;2024-02-28T09:58:29;99101.13;;;10.81;84.04
59063;BME280;44851;45.648;9.004;2024-02-28T10:01:02;99097.94;;;11.07;83.76
59063;BME280;44851;45.648;9.004;2024-02-28T10:03:32;99106.16;;;11.22;84.55
59063;BME280;44851;45.648;9.004;2024-02-28T10:06:04;99106.69;;;11.25;82.97
59063;BME280;44851;45.648;9.004;2024-02-28T10:08:30;99108.84;;;11.39;82.49
59063;BME280;44851;45.648;9.004;2024-02-28T10:10:57;99117.47;;;11.50;83.95
59063;BME280;44851;45.648;9.004;2024-02-28T10:13:27;99115.97;;;11.57;82.71
59063;BME280;44851;45.648;9.004;2024-02-28T10:15:54;99117.41;;;11.69;82.38
59063;BME280;44851;45.648;9.004;2024-02-28T10:18:21;99125.44;;;11.85;82.35
59063;BME280;44851;45.648;9.004;2024-02-28T10:20:47;99114.34;;;12.11;80.58
59063;BME280;44851;45.648;9.004;2024-02-28T10:23:13;99117.31;;;12.26;79.20
59063;BME280;44851;45.648;9.004;2024-02-28T10:25:46;99110.56;;;12.23;78.39
59063;BME280;44851;45.648;9.004;2024-02-28T10:28:14;99109.47;;;12.43;80.29
59063;BME280;44851;45.648;9.004;2024-02-28T10:30:48;99116.94;;;12.38;78.70
59063;BME280;44851;45.648;9.004;2024-02-28T10:33:38;99122.53;;;12.43;78.95
59063;BME280;44851;45.648;9.004;2024-02-28T10:44:57;99120.44;;;12.83;78.29
59063;BME280;44851;45.648;9.004;2024-02-28T10:56:42;99116.06;;;13.87;73.59
59063;BME280;44851;45.648;9.004;2024-02-28T10:59:28;99109.28;;;14.19;75.38
59063;BME280;44851;45.648;9.004;2024-02-28T11:27:29;99119.94;;;15.80;68.80
59063;BME280;44851;45.648;9.004;2024-02-28T11:36:18;99117.44;;;15.32;69.91
59063;BME280;44851;45.648;9.004;2024-02-28T11:38:51;99112.50;;;15.28;66.82
59063;BME280;44851;45.648;9.004;2024-02-28T11:41:43;99109.09;;;15.03;66.24
59063;BME280;44851;45.648;9.004;2024-02-28T11:50:32;99107.44;;;14.86;69.59
59063;BME280;44851;45.648;9.004;2024-02-28T11:52:57;99097.78;;;14.78;70.00
59063;BME280;44851;45.648;9.004;2024-02-28T11:55:42;99101.06;;;14.72;71.22
59063;BME280;44851;45.648;9.004;2024-02-28T11:58:17;99099.72;;;14.68;72.54
59063;BME280;44851;45.648;9.004;2024-02-28T12:00:50;99096.09;;;14.53;69.71
59063;BME280;44851;45.648;9.004;2024-02-28T12:06:53;99096.44;;;14.50;68.33
59063;BME280;44851;45.648;9.004;2024-02-28T12:09:23;99091.69;;;14.45;68.98
59063;BME280;44851;45.648;9.004;2024-02-28T12:12:14;99081.84;;;14.39;68.29
59063;BME280;44851;45.648;9.004;2024-02-28T12:14:39;99083.81;;;14.45;68.54
59063;BME280;44851;45.648;9.004;2024-02-28T12:17:21;99079.03;;;14.33;67.65
59063;BME280;44851;45.648;9.004;2024-02-28T12:19:47;99077.41;;;14.48;70.27
59063;BME280;44851;45.648;9.004;2024-02-28T12:22:12;99079.91;;;14.49;70.52
59063;BME280;44851;45.648;9.004;2024-02-28T12:24:37;99085.97;;;14.50;70.52
59063;BME280;44851;45.648;9.004;2024-02-28T12:27:13;99082.84;;;14.55;67.79
59063;BME280;44851;45.648;9.004;2024-02-28T12:30:10;99071.19;;;14.57;68.97
59063;BME280;44851;45.648;9.004;2024-02-28T12:33:16;99063.19;;;14.67;67.77
59063;BME280;44851;45.648;9.004;2024-02-28T12:36:24;99058.59;;;14.77;69.91
59063;BME280;44851;45.648;9.004;2024-02-28T12:39:25;99056.59;;;14.95;69.62
59063;BME280;44851;45.648;9.004;2024-02-28T12:42:29;99052.94;;;15.21;70.22
59063;BME280;44851;45.648;9.004;2024-02-28T12:48:22;99043.22;;;15.46;65.64
59063;BME280;44851;45.648;9.004;2024-02-28T12:53:46;99041.53;;;15.53;60.72
59063;BME280;44851;45.648;9.004;2024-02-28T12:57:24;99042.28;;;16.09;63.87
59063;BME280;44851;45.648;9.004;2024-02-28T13:00:28;99031.19;;;16.22;60.90
59063;BME280;44851;45.648;9.004;2024-02-28T13:03:25;99025.56;;;16.25;60.77
59063;BME280;44851;45.648;9.004;2024-02-28T13:06:03;99024.59;;;16.26;61.43
59063;BME280;44851;45.648;9.004;2024-02-28T13:08:31;99020.19;;;16.18;61.89
59063;BME280;44851;45.648;9.004;2024-02-28T13:11:00;99019.38;;;16.18;60.43
59063;BME280;44851;45.648;9.004;2024-02-28T13:13:27;99009.88;;;16.08;62.71
59063;BME280;44851;45.648;9.004;2024-02-28T13:16:20;99016.66;;;16.03;63.50
59063;BME280;44851;45.648;9.004;2024-02-28T13:19:48;99004.03;;;15.98;61.18
59063;BME280;44851;45.648;9.004;2024-02-28T13:26:09;99013.97;;;16.11;64.20
59063;BME280;44851;45.648;9.004;2024-02-28T13:29:21;99008.53;;;16.21;61.07
59063;BME280;44851;45.648;9.004;2024-02-28T13:51:26;99000.81;;;16.95;55.60
59063;BME280;44851;45.648;9.004;2024-02-28T13:54:11;98995.84;;;17.15;55.32
59063;BME280;44851;45.648;9.004;2024-02-28T13:56:36;98996.59;;;17.23;57.17
59063;BME280;44851;45.648;9.004;2024-02-28T13:59:03;98996.31;;;17.18;52.89
59063;BME280;44851;45.648;9.004;2024-02-28T14:01:29;98997.94;;;17.34;55.55
59063;BME280;44851;45.648;9.004;2024-02-28T14:03:55;98989.00;;;17.50;54.55
59063;BME280;44851;45.648;9.004;2024-02-28T14:06:20;98994.09;;;17.36;53.60
59063;BME280;44851;45.648;9.004;2024-02-28T14:08:45;98989.28;;;17.40;53.38
59063;BME280;44851;45.648;9.004;2024-02-28T14:11:11;98996.38;;;17.25;53.43
59063;BME280;44851;45.648;9.004;2024-02-28T14:13:37;98989.69;;;17.22;52.91
59063;BME280;44851;45.648;9.004;2024-02-28T14:16:04;98987.59;;;17.18;52.91
59063;BME280;44851;45.648;9.004;2024-02-28T14:18:30;98993.28;;;17.06;52.01
59063;BME280;44851;45.648;9.004;2024-02-28T14:20:55;98993.53;;;16.97;55.29
59063;BME280;44851;45.648;9.004;2024-02-28T14:23:22;98995.00;;;16.84;53.25
59063;BME280;44851;45.648;9.004;2024-02-28T14:25:48;98997.22;;;16.73;53.94
59063;BME280;44851;45.648;9.004;2024-02-28T14:28:13;98998.88;;;16.74;53.16
59063;BME280;44851;45.648;9.004;2024-02-28T14:30:38;99002.56;;;16.65;54.50
59063;BME280;44851;45.648;9.004;2024-02-28T14:33:04;99011.03;;;16.75;55.68
59063;BME280;44851;45.648;9.004;2024-02-28T14:35:30;99012.09;;;16.66;54.23
59063;BME280;44851;45.648;9.004;2024-02-28T14:37:55;99007.69;;;16.43;56.11
59063;BME280;44851;45.648;9.004;2024-02-28T14:40:20;99014.59;;;16.44;57.21
59063;BME280;44851;45.648;9.004;2024-02-28T14:42:46;99014.94;;;16.41;55.80
59063;BME280;44851;45.648;9.004;2024-02-28T14:45:12;99015.41;;;16.45;55.61
59063;BME280;44851;45.648;9.004;2024-02-28T14:47:38;99019.22;;;16.42;54.83
59063;BME280;44851;45.648;9.004;2024-02-28T14:50:04;99015.19;;;16.31;54.89
59063;BME280;44851;45.648;9.004;2024-02-28T14:52:30;99019.50;;;16.24;54.09
59063;BME280;44851;45.648;9.004;2024-02-28T14:54:55;99011.53;;;16.09;54.13
59063;BME280;44851;45.648;9.004;2024-02-28T14:57:21;99020.16;;;15.95;55.35
59063;BME280;44851;45.648;9.004;2024-02-28T14:59:46;99023.06;;;15.77;53.97